createdAt,value
2022-10-11T00:02:06.179Z,9.63
2022-10-11T00:04:34.218Z,10.10
2022-10-11T00:07:03.457Z,10.07
2022-10-11T00:09:31.476Z,9.20
2022-10-11T00:11:59.352Z,12.87
2022-10-11T00:14:27.700Z,10.57
2022-10-11T00:16:55.755Z,8.33
2022-10-11T00:19:23.932Z,11.50
2022-10-11T00:21:51.823Z,7.00
2022-10-11T00:24:21.100Z,15.50
2022-10-11T00:26:49.003Z,7.30
2022-10-11T00:29:16.922Z,11.00
2022-10-11T00:31:44.884Z,7.93
2022-10-11T00:34:13.386Z,9.27
2022-10-11T00:36:41.333Z,15.50
2022-10-11T00:39:09.275Z,11.00
2022-10-11T00:41:38.586Z,9.60
2022-10-11T00:44:11.531Z,6.97
2022-10-11T00:46:39.937Z,7.70
2022-10-11T00:49:14.725Z,7.30
2022-10-11T00:51:46.788Z,9.50
2022-10-11T00:54:17.554Z,12.07
2022-10-11T00:56:50.614Z,7.73
2022-10-11T00:59:25.061Z,7.23
2022-10-11T01:01:53.283Z,7.10
2022-10-11T01:04:21.729Z,8.87
2022-10-11T01:06:50.837Z,8.17
2022-10-11T01:09:20.315Z,10.10
2022-10-11T01:11:50.640Z,9.00
2022-10-11T01:14:40.800Z,8.80
2022-10-11T01:17:15.713Z,8.23
2022-10-11T01:19:56.337Z,9.70
2022-10-11T01:22:44.560Z,6.87
2022-10-11T01:25:19.153Z,12.33
2022-10-11T01:28:01.085Z,9.77
2022-10-11T01:30:31.022Z,8.30
2022-10-11T01:33:08.534Z,8.47
2022-10-11T01:35:40.477Z,11.40
2022-10-11T01:38:12.096Z,13.90
2022-10-11T01:40:45.422Z,17.60
2022-10-11T01:43:14.702Z,9.53
2022-10-11T01:45:44.962Z,8.27
2022-10-11T01:48:15.188Z,9.40
2022-10-11T01:50:45.906Z,7.60
2022-10-11T01:53:38.879Z,7.80
2022-10-11T01:56:14.446Z,8.63
2022-10-11T01:58:53.160Z,10.37
2022-10-11T02:01:28.812Z,11.20
2022-10-11T02:04:03.109Z,8.10
2022-10-11T02:06:34.231Z,7.80
2022-10-11T02:09:08.096Z,6.93
2022-10-11T02:11:36.438Z,8.27
2022-10-11T02:14:09.461Z,12.70
2022-10-11T02:16:41.881Z,8.37
2022-10-11T02:19:10.441Z,9.07
2022-10-11T02:21:40.217Z,12.27
2022-10-11T02:24:12.500Z,11.23
2022-10-11T02:26:42.153Z,7.30
2022-10-11T02:29:11.256Z,12.47
2022-10-11T02:31:40.982Z,8.20
2022-10-11T02:34:13.869Z,6.80
2022-10-11T02:36:50.085Z,7.60
2022-10-11T02:39:19.823Z,7.87
2022-10-11T02:41:47.970Z,9.13
2022-10-11T02:44:20.337Z,16.80
2022-10-11T02:46:50.466Z,9.23
2022-10-11T02:49:19.377Z,6.90
2022-10-11T02:51:47.294Z,6.43
2022-10-11T02:54:15.182Z,12.23
2022-10-11T02:56:43.065Z,7.93
2022-10-11T02:59:10.971Z,11.70
2022-10-11T03:01:38.902Z,11.87
2022-10-11T03:04:08.251Z,9.60
2022-10-11T03:06:36.123Z,9.27
2022-10-11T03:09:04.357Z,12.93
2022-10-11T03:11:32.220Z,7.53
2022-10-11T03:14:00.150Z,10.70
2022-10-11T03:16:28.051Z,7.10
2022-10-11T03:18:55.960Z,5.97
2022-10-11T03:21:25.812Z,9.40
2022-10-11T03:23:53.745Z,15.50
2022-10-11T03:26:21.662Z,6.37
2022-10-11T03:28:49.606Z,6.90
2022-10-11T03:31:18.629Z,8.63
2022-10-11T03:33:46.535Z,8.47
2022-10-11T03:36:14.463Z,6.73
2022-10-11T03:38:43.736Z,11.60
2022-10-11T03:41:11.624Z,9.37
2022-10-11T03:43:39.659Z,13.30
2022-10-11T03:46:08.555Z,6.23
2022-10-11T03:48:36.677Z,7.90
2022-10-11T03:51:04.777Z,9.00
2022-10-11T03:53:32.663Z,16.03
2022-10-11T03:56:07.373Z,13.17
2022-10-11T03:58:36.403Z,5.47
2022-10-11T04:01:04.596Z,8.67
2022-10-11T04:03:32.503Z,25.87
2022-10-11T04:06:00.610Z,14.57
2022-10-11T04:08:28.581Z,6.63
2022-10-11T04:10:56.574Z,9.67
2022-10-11T04:13:25.875Z,6.63
2022-10-11T04:15:53.745Z,7.03
2022-10-11T04:18:21.693Z,8.40
2022-10-11T04:20:49.621Z,11.07
2022-10-11T04:23:17.527Z,10.87
2022-10-11T04:25:45.562Z,9.07
2022-10-11T04:28:13.540Z,7.90
2022-10-11T04:30:42.829Z,12.60
2022-10-11T04:33:11.559Z,7.20
2022-10-11T04:35:39.549Z,12.30
2022-10-11T04:38:07.668Z,11.37
2022-10-11T04:40:35.613Z,16.40
2022-10-11T04:43:03.553Z,18.63
2022-10-11T04:45:32.157Z,14.70
2022-10-11T04:48:01.404Z,22.33
2022-10-11T04:50:29.307Z,16.40
2022-10-11T04:52:57.195Z,19.20
2022-10-11T04:55:25.077Z,15.20
2022-10-11T04:57:52.953Z,22.00
2022-10-11T05:00:20.872Z,16.10
2022-10-11T05:02:48.817Z,12.03
2022-10-11T05:05:18.242Z,18.23
2022-10-11T05:07:46.176Z,13.03
2022-10-11T05:10:14.590Z,13.60
2022-10-11T05:12:42.578Z,13.20
2022-10-11T05:15:11.289Z,18.67
2022-10-11T05:17:39.543Z,17.10
2022-10-11T05:20:08.628Z,15.07
2022-10-11T05:22:37.869Z,23.43
2022-10-11T05:25:06.581Z,14.30
2022-10-11T05:27:34.499Z,23.00
2022-10-11T05:30:02.426Z,28.90
2022-10-11T05:32:30.333Z,27.23
2022-10-11T05:34:58.293Z,24.80
2022-10-11T05:37:26.188Z,21.93
2022-10-11T05:39:55.478Z,26.10
2022-10-11T05:42:23.365Z,14.40
2022-10-11T05:44:51.278Z,13.30
2022-10-11T05:47:19.215Z,16.60
2022-10-11T05:49:47.088Z,12.37
2022-10-11T05:52:19.762Z,26.63
2022-10-11T05:54:47.650Z,13.30
2022-10-11T05:57:17.561Z,16.57
2022-10-11T05:59:45.480Z,14.87
2022-10-11T06:02:13.562Z,17.30
2022-10-11T06:04:41.451Z,17.10
2022-10-11T06:07:09.365Z,20.33
2022-10-11T06:09:37.245Z,9.63
2022-10-11T06:12:05.314Z,20.73
2022-10-11T06:14:34.837Z,12.40
2022-10-11T06:17:02.748Z,9.20
2022-10-11T06:19:30.662Z,9.23
2022-10-11T06:21:58.546Z,14.13
2022-10-11T06:24:26.439Z,14.00
2022-10-11T06:26:54.518Z,16.67
2022-10-11T06:29:23.157Z,28.80
2022-10-11T06:31:52.417Z,24.70
2022-10-11T06:34:20.485Z,14.33
2022-10-11T06:36:48.418Z,9.43
2022-10-11T06:39:16.419Z,15.40
2022-10-11T06:41:44.327Z,13.97
2022-10-11T06:44:14.334Z,11.00
2022-10-11T06:46:42.663Z,17.07
2022-10-11T06:49:13.294Z,13.00
2022-10-11T06:51:41.198Z,12.37
2022-10-11T06:54:09.138Z,11.33
2022-10-11T06:56:37.084Z,10.20
2022-10-11T06:59:04.983Z,8.70
2022-10-11T07:01:33.374Z,12.40
2022-10-11T07:04:03.076Z,9.93
2022-10-11T07:06:33.122Z,10.70
2022-10-11T07:09:01.709Z,15.10
2022-10-11T07:11:30.049Z,11.03
2022-10-11T07:13:59.061Z,7.87
2022-10-11T07:16:28.067Z,5.50
2022-10-11T07:19:00.449Z,8.30
2022-10-11T07:21:29.648Z,6.57
2022-10-11T07:23:59.049Z,9.03
2022-10-11T07:26:26.941Z,8.80
2022-10-11T07:28:55.051Z,12.10
2022-10-11T07:31:25.270Z,14.97
2022-10-11T07:33:53.268Z,7.03
2022-10-11T07:36:23.161Z,11.80
2022-10-11T07:38:51.204Z,19.33
2022-10-11T07:41:20.589Z,14.90
2022-10-11T07:43:49.891Z,11.37
2022-10-11T07:46:18.007Z,14.30
2022-10-11T07:48:46.015Z,19.83
2022-10-11T07:51:18.187Z,11.50
2022-10-11T07:53:47.424Z,21.33
2022-10-11T07:56:16.690Z,14.33
2022-10-11T07:58:49.908Z,8.73
2022-10-11T08:01:17.912Z,16.83
2022-10-11T08:03:45.827Z,12.63
2022-10-11T08:06:15.968Z,10.60
2022-10-11T08:08:44.099Z,10.73
2022-10-11T08:11:12.450Z,11.43
2022-10-11T08:13:40.333Z,16.90
2022-10-11T08:16:14.013Z,12.00
2022-10-11T08:18:41.859Z,18.23
2022-10-11T08:21:10.436Z,4.97
2022-10-11T08:23:38.428Z,6.30
2022-10-11T08:26:07.702Z,11.07
2022-10-11T08:28:35.875Z,13.63
2022-10-11T08:31:04.271Z,10.77
2022-10-11T08:33:33.624Z,9.57
2022-10-11T08:36:06.023Z,8.57
2022-10-11T08:38:34.552Z,19.17
2022-10-11T08:41:02.918Z,12.43
2022-10-11T08:43:43.582Z,8.57
2022-10-11T08:46:11.998Z,12.13
2022-10-11T08:48:42.998Z,11.93
2022-10-11T08:51:16.567Z,12.00
2022-10-11T08:53:48.200Z,11.43
2022-10-11T08:56:16.868Z,11.10
2022-10-11T08:58:48.350Z,11.00
2022-10-11T09:01:20.011Z,12.13
2022-10-11T09:03:49.933Z,10.40
2022-10-11T09:06:24.156Z,7.90
2022-10-11T09:09:08.770Z,13.07
2022-10-11T09:11:45.222Z,8.63
2022-10-11T09:14:33.875Z,9.33
2022-10-11T09:17:06.397Z,9.97
2022-10-11T09:20:12.864Z,19.97
2022-10-11T09:22:48.021Z,13.73
2022-10-11T09:25:26.868Z,19.43
2022-10-11T09:28:07.313Z,6.77
2022-10-11T09:30:37.352Z,16.77
2022-10-11T09:33:12.867Z,15.10
2022-10-11T09:35:44.303Z,12.33
2022-10-11T09:38:18.259Z,8.90
2022-10-11T09:40:54.891Z,14.13
2022-10-11T09:43:22.848Z,10.70
2022-10-11T09:45:50.729Z,9.17
2022-10-11T09:48:21.821Z,7.20
2022-10-11T09:50:52.148Z,7.33
2022-10-11T09:53:21.872Z,9.73
2022-10-11T09:55:53.515Z,10.43
2022-10-11T09:58:29.888Z,10.50
2022-10-11T10:01:05.111Z,12.23
2022-10-11T10:03:37.436Z,14.50
2022-10-11T10:06:09.480Z,20.47
2022-10-11T10:08:37.934Z,14.20
2022-10-11T10:11:07.416Z,8.07
2022-10-11T10:13:45.277Z,19.47
2022-10-11T10:16:21.992Z,20.87
2022-10-11T10:18:53.411Z,10.30
2022-10-11T10:21:29.462Z,9.50
2022-10-11T10:24:00.142Z,11.57
2022-10-11T10:26:28.529Z,12.90
2022-10-11T10:29:02.660Z,9.27
2022-10-11T10:32:09.151Z,15.73
2022-10-11T10:34:29.805Z,18.40
2022-10-11T10:37:02.780Z,9.80
2022-10-11T10:39:35.256Z,10.10
2022-10-11T10:42:04.957Z,13.53
2022-10-11T10:44:32.813Z,13.60
2022-10-11T10:47:07.013Z,13.27
2022-10-11T10:49:54.930Z,14.47
2022-10-11T10:52:49.718Z,10.50
2022-10-11T10:55:24.980Z,13.30
2022-10-11T10:58:20.592Z,21.00
2022-10-11T11:00:50.459Z,14.30
2022-10-11T11:03:23.733Z,13.20
2022-10-11T11:05:59.434Z,24.90
2022-10-11T11:08:39.975Z,14.30
2022-10-11T11:11:22.270Z,15.30
2022-10-11T11:13:56.700Z,15.63
2022-10-11T11:16:29.720Z,18.00
2022-10-11T11:19:02.202Z,14.20
2022-10-11T11:21:41.399Z,19.47
2022-10-11T11:24:15.786Z,20.50
2022-10-11T11:26:49.212Z,21.40
2022-10-11T11:29:25.397Z,32.70
2022-10-11T11:32:10.525Z,22.27
2022-10-11T11:34:40.040Z,34.43
2022-10-11T11:37:12.829Z,18.60
2022-10-11T11:39:44.931Z,17.00
2022-10-11T11:42:15.306Z,13.70
2022-10-11T11:44:45.958Z,20.37
2022-10-11T11:47:19.111Z,22.70
2022-10-11T11:49:49.996Z,18.33
2022-10-11T11:52:21.826Z,17.47
2022-10-11T11:55:00.089Z,22.65
2022-10-11T11:57:45.937Z,19.00
2022-10-11T12:00:17.146Z,19.77
2022-10-11T12:02:46.738Z,18.10
2022-10-11T12:05:18.257Z,17.33
2022-10-11T12:07:52.521Z,15.13
2022-10-11T12:10:34.851Z,20.07
2022-10-11T12:13:11.533Z,14.13
2022-10-11T12:15:39.596Z,17.63
2022-10-11T12:18:16.315Z,17.43
2022-10-11T12:20:45.166Z,19.23
2022-10-11T12:23:41.224Z,22.13
2022-10-11T12:26:44.107Z,27.57
2022-10-11T12:29:47.550Z,19.13
2022-10-11T12:32:51.285Z,23.30
2022-10-11T12:35:43.323Z,19.30
2022-10-11T12:38:17.369Z,20.20
2022-10-11T12:40:47.277Z,22.77
2022-10-11T12:43:36.126Z,19.03
2022-10-11T12:46:40.374Z,23.43
2022-10-11T12:49:21.355Z,16.53
2022-10-11T12:51:57.609Z,14.20
2022-10-11T12:55:04.497Z,18.47
2022-10-11T12:58:04.386Z,16.40
2022-10-11T13:00:35.672Z,20.73
2022-10-11T13:03:07.010Z,15.90
2022-10-11T13:05:45.042Z,19.63
2022-10-11T13:08:16.751Z,23.00
2022-10-11T13:10:46.730Z,28.97
2022-10-11T13:13:19.192Z,23.00
2022-10-11T13:15:48.554Z,15.73
2022-10-11T13:18:17.712Z,18.53
2022-10-11T13:20:46.048Z,22.57
2022-10-11T13:23:22.780Z,17.30
2022-10-11T13:25:50.949Z,19.67
2022-10-11T13:28:19.794Z,20.73
2022-10-11T13:30:51.505Z,19.70
2022-10-11T13:33:21.521Z,22.67
2022-10-11T13:35:49.570Z,17.50
2022-10-11T13:38:22.096Z,14.03
2022-10-11T13:40:51.270Z,20.03
2022-10-11T13:43:21.728Z,20.40
2022-10-11T13:45:51.068Z,16.73
2022-10-11T13:48:19.111Z,22.27
2022-10-11T13:50:52.331Z,15.30
2022-10-11T13:53:24.407Z,17.40
2022-10-11T13:55:54.278Z,17.53
2022-10-11T13:58:26.498Z,16.07
2022-10-11T14:00:57.686Z,16.37
2022-10-11T14:03:36.833Z,15.43
2022-10-11T14:06:05.242Z,18.40
2022-10-11T14:08:37.716Z,13.63
2022-10-11T14:11:06.818Z,10.07
2022-10-11T14:13:36.857Z,18.53
2022-10-11T14:16:09.219Z,13.60
2022-10-11T14:18:44.379Z,10.70
2022-10-11T14:21:31.421Z,8.53
2022-10-11T14:24:01.189Z,15.63
2022-10-11T14:26:33.721Z,30.57
2022-10-11T14:29:03.545Z,17.00
2022-10-11T14:31:32.885Z,17.80
2022-10-11T14:34:00.903Z,13.77
2022-10-11T14:36:28.807Z,14.23
2022-10-11T14:38:56.794Z,8.57
2022-10-11T14:41:24.799Z,19.33
2022-10-11T14:43:56.326Z,18.47
2022-10-11T14:46:25.435Z,13.07
2022-10-11T14:48:56.211Z,14.10
2022-10-11T14:51:26.706Z,15.60
2022-10-11T14:53:54.657Z,20.23
2022-10-11T14:56:22.629Z,9.90
2022-10-11T14:58:50.922Z,14.90
2022-10-11T15:01:18.915Z,13.57
2022-10-11T15:03:46.857Z,11.87
2022-10-11T15:06:19.457Z,14.80
2022-10-11T15:08:47.638Z,9.27
2022-10-11T15:11:17.085Z,9.60
2022-10-11T15:13:45.501Z,14.30
2022-10-11T15:16:14.477Z,30.00
2022-10-11T15:18:42.479Z,20.17
2022-10-11T15:21:12.993Z,28.43
2022-10-11T15:23:42.321Z,12.30
2022-10-11T15:26:11.472Z,12.10
2022-10-11T15:28:39.447Z,11.33
2022-10-11T15:31:07.408Z,21.27
2022-10-11T15:33:35.303Z,8.87
2022-10-11T15:36:03.502Z,14.60
2022-10-11T15:38:31.692Z,20.63
2022-10-11T15:41:01.086Z,17.70
2022-10-11T15:43:28.956Z,22.73
2022-10-11T15:45:57.685Z,18.53
2022-10-11T15:48:27.380Z,10.93
2022-10-11T15:50:55.363Z,19.70
2022-10-11T15:53:25.876Z,24.23
2022-10-11T15:55:55.024Z,16.13
2022-10-11T15:58:26.240Z,11.73
2022-10-11T16:00:56.055Z,19.20
2022-10-11T16:03:26.160Z,8.57
2022-10-11T16:05:54.555Z,14.13
2022-10-11T16:08:23.148Z,13.20
2022-10-11T16:10:51.561Z,10.17
2022-10-11T16:13:19.865Z,9.70
2022-10-11T16:15:49.912Z,16.10
2022-10-11T16:18:20.202Z,21.63
2022-10-11T16:20:51.091Z,16.00
2022-10-11T16:23:19.616Z,17.70
2022-10-11T16:25:47.721Z,15.83
2022-10-11T16:28:15.618Z,19.30
2022-10-11T16:30:44.214Z,26.30
2022-10-11T16:33:13.468Z,22.97
2022-10-11T16:35:42.149Z,19.63
2022-10-11T16:38:10.370Z,13.73
2022-10-11T16:40:39.103Z,17.93
2022-10-11T16:43:08.105Z,20.87
2022-10-11T16:45:36.883Z,17.80
2022-10-11T16:48:05.513Z,21.80
2022-10-11T16:50:39.275Z,13.80
2022-10-11T16:53:07.631Z,19.90
2022-10-11T16:55:35.506Z,14.13
2022-10-11T16:58:03.401Z,12.03
2022-10-11T17:00:31.353Z,20.13
2022-10-11T17:02:59.360Z,13.57
2022-10-11T17:05:27.374Z,12.63
2022-10-11T17:07:56.608Z,18.93
2022-10-11T17:10:39.394Z,16.10
2022-10-11T17:13:07.451Z,19.33
2022-10-11T17:15:36.120Z,23.80
2022-10-11T17:18:04.740Z,23.03
2022-10-11T17:20:32.637Z,15.80
2022-10-11T17:23:01.985Z,17.93
2022-10-11T17:25:29.897Z,23.90
2022-10-11T17:27:58.141Z,27.97
2022-10-11T17:30:26.275Z,23.37
2022-10-11T17:32:54.223Z,23.03
2022-10-11T17:35:22.076Z,17.23
2022-10-11T17:37:50.596Z,21.30
2022-10-11T17:40:20.139Z,19.17
2022-10-11T17:42:48.033Z,16.27
2022-10-11T17:45:15.982Z,14.37
2022-10-11T17:47:43.954Z,21.60
2022-10-11T17:50:12.024Z,19.13
2022-10-11T17:52:39.918Z,15.20
2022-10-11T17:55:08.249Z,17.47
2022-10-11T17:57:37.539Z,17.63
2022-10-11T18:00:06.546Z,19.87
2022-10-11T18:02:34.462Z,15.50
2022-10-11T18:05:03.326Z,23.93
2022-10-11T18:07:31.233Z,17.03
2022-10-11T18:10:01.895Z,38.77
2022-10-11T18:12:30.135Z,34.27
2022-10-11T18:14:59.501Z,32.73
2022-10-11T18:17:27.373Z,35.53
2022-10-11T18:19:55.269Z,25.40
2022-10-11T18:22:23.129Z,14.63
2022-10-11T18:24:51.046Z,22.30
2022-10-11T18:27:19.143Z,16.43
2022-10-11T18:29:47.031Z,19.73
2022-10-11T18:32:18.100Z,19.13
2022-10-11T18:34:46.096Z,18.87
2022-10-11T18:37:14.049Z,13.77
2022-10-11T18:39:41.990Z,13.80
2022-10-11T18:42:09.883Z,17.20
2022-10-11T18:44:37.743Z,20.47
2022-10-11T18:47:05.981Z,24.33
2022-10-11T18:49:35.659Z,25.13
2022-10-11T18:52:03.682Z,23.20
2022-10-11T18:54:31.637Z,17.13
2022-10-11T18:56:59.858Z,21.20
2022-10-11T18:59:27.876Z,23.63
2022-10-11T19:01:55.835Z,17.40
2022-10-11T19:04:23.758Z,16.27
2022-10-11T19:06:53.442Z,17.93
2022-10-11T19:09:23.313Z,19.57
2022-10-11T19:11:52.029Z,18.47
2022-10-11T19:14:22.046Z,26.80
2022-10-11T19:16:51.618Z,20.30
2022-10-11T19:19:21.207Z,18.70
2022-10-11T19:21:49.543Z,17.93
2022-10-11T19:24:20.353Z,20.03
2022-10-11T19:26:48.829Z,16.73
2022-10-11T19:29:19.822Z,19.60
2022-10-11T19:31:49.313Z,17.77
2022-10-11T19:34:17.658Z,18.47
2022-10-11T19:36:45.576Z,24.57
2022-10-11T19:39:14.567Z,21.83
2022-10-11T19:41:44.712Z,26.97
2022-10-11T19:44:12.962Z,22.67
2022-10-11T19:46:58.315Z,20.90
2022-10-11T19:49:28.221Z,25.90
2022-10-11T19:51:56.220Z,19.43
2022-10-11T19:54:24.498Z,21.93
2022-10-11T19:56:53.954Z,26.50
2022-10-11T19:59:21.861Z,24.33
2022-10-11T20:01:52.984Z,27.67
2022-10-11T20:07:09.379Z,26.10
2022-10-11T20:09:37.317Z,18.03
2022-10-11T20:12:06.960Z,19.87
2022-10-11T20:14:34.915Z,19.83
2022-10-11T20:17:02.804Z,17.73
2022-10-11T20:19:31.389Z,19.43
2022-10-11T20:21:59.976Z,25.07
2022-10-11T20:24:32.527Z,16.57
2022-10-11T20:27:01.611Z,19.83
2022-10-11T20:29:30.937Z,18.87
2022-10-11T20:31:59.452Z,16.80
2022-10-11T20:34:28.314Z,19.37
2022-10-11T20:36:56.217Z,15.90
2022-10-11T20:39:24.704Z,20.43
2022-10-11T20:41:52.659Z,16.93
2022-10-11T20:44:20.556Z,19.30
2022-10-11T20:46:49.852Z,23.87
2022-10-11T20:49:19.837Z,17.70
2022-10-11T20:51:47.880Z,16.73
2022-10-11T20:54:16.299Z,21.13
2022-10-11T20:56:44.287Z,12.27
2022-10-11T20:59:12.245Z,16.33
2022-10-11T21:01:41.603Z,16.33
2022-10-11T21:04:19.971Z,23.37
2022-10-11T21:06:48.342Z,18.20
2022-10-11T21:09:17.174Z,16.67
2022-10-11T21:11:45.424Z,17.37
2022-10-11T21:14:13.417Z,15.00
2022-10-11T21:16:41.386Z,19.20
2022-10-11T21:19:14.338Z,20.93
2022-10-11T21:21:42.322Z,20.93
2022-10-11T21:24:10.209Z,14.70
2022-10-11T21:26:38.104Z,20.30
2022-10-11T21:29:06.119Z,14.57
2022-10-11T21:31:34.622Z,13.37
2022-10-11T21:34:03.286Z,19.53
2022-10-11T21:36:32.573Z,15.63
2022-10-11T21:39:00.573Z,14.50
2022-10-11T21:41:30.140Z,21.00
2022-10-11T21:43:58.603Z,19.53
2022-10-11T21:46:47.459Z,18.50
2022-10-11T21:49:16.030Z,16.43
2022-10-11T21:51:45.318Z,17.93
2022-10-11T21:54:13.233Z,15.77
2022-10-11T21:56:41.158Z,16.40
2022-10-11T21:59:12.024Z,19.10
2022-10-11T22:01:40.789Z,19.53
2022-10-11T22:04:09.230Z,14.33
2022-10-11T22:06:37.968Z,14.13
2022-10-11T22:09:08.240Z,14.13
2022-10-11T22:11:36.550Z,18.37
2022-10-11T22:14:04.455Z,22.83
2022-10-11T22:16:34.153Z,19.27
2022-10-11T22:19:02.070Z,16.00
2022-10-11T22:21:30.108Z,20.70
2022-10-11T22:23:58.076Z,17.80
2022-10-11T22:26:30.602Z,14.80
2022-10-11T22:28:59.014Z,14.60
2022-10-11T22:31:27.355Z,17.37
2022-10-11T22:33:55.843Z,19.23
2022-10-11T22:36:24.943Z,20.80
2022-10-11T22:38:53.445Z,26.73
2022-10-11T22:41:21.395Z,22.70
2022-10-11T22:43:50.714Z,17.73
2022-10-11T22:46:18.665Z,21.23
2022-10-11T22:48:46.545Z,22.80
2022-10-11T22:51:14.705Z,16.87
2022-10-11T22:53:42.656Z,22.90
2022-10-11T22:56:11.221Z,16.50
2022-10-11T22:58:39.140Z,17.17
2022-10-11T23:01:09.782Z,17.67
2022-10-11T23:03:37.781Z,18.03
2022-10-11T23:06:06.278Z,21.10
2022-10-11T23:08:34.174Z,27.50
2022-10-11T23:11:04.365Z,24.70
2022-10-11T23:13:32.281Z,26.83
2022-10-11T23:16:00.285Z,16.67
2022-10-11T23:18:29.578Z,15.73
2022-10-11T23:21:00.830Z,14.83
2022-10-11T23:23:28.731Z,14.60
2022-10-11T23:26:04.891Z,16.20
2022-10-11T23:28:32.840Z,19.57
2022-10-11T23:31:00.745Z,20.67
2022-10-11T23:33:30.841Z,16.43
2022-10-11T23:35:58.712Z,19.47
2022-10-11T23:38:26.614Z,19.30
2022-10-11T23:40:54.483Z,18.77
2022-10-11T23:43:22.775Z,20.87
2022-10-11T23:45:51.217Z,18.60
2022-10-11T23:48:19.111Z,17.63
2022-10-11T23:50:48.398Z,21.60
2022-10-11T23:53:16.318Z,17.60
2022-10-11T23:55:44.450Z,21.50
2022-10-11T23:58:12.333Z,21.90
